Time;durP1;ratioP1;P1;durP2;ratioP2;P2;SDS_P1;SDS_P2;PMS_P1;PMS_P2;Temp;Humidity;BMP_temperature;BMP_pressure;BME280_temperature;BME280_humidity;BME280_pressure;Samples;Min_cycle;Max_cycle;Signal;HPM_P1;HPM_P2
2023/06/20 00:01:17;;;;;;;;;;;18.40;99.90;;;;;;5096689;28;20112;-58
2023/06/20 00:03:45;;;;;;;7.65;4.45;;;18.40;99.90;;;;;;5089802;28;19997;-60
2023/06/20 00:06:11;;;;;;;8.48;4.85;;;18.50;99.90;;;;;;5065893;28;20075;-59
2023/06/20 00:08:36;;;;;;;;;;;18.50;99.90;;;;;;5049741;28;20125;-62
2023/06/20 00:11:02;;;;;;;6.22;4.15;;;18.40;99.90;;;;;;5058413;28;19994;-55
2023/06/20 00:13:28;;;;;;;;;;;18.40;99.90;;;;;;5055171;28;20546;-58
2023/06/20 00:15:57;;;;;;;6.38;4.40;;;18.30;99.90;;;;;;5061538;28;19927;-58
2023/06/20 00:18:24;;;;;;;5.97;4.40;;;18.30;99.90;;;;;;5046325;28;20051;-61
2023/06/20 00:20:53;;;;;;;7.35;4.65;;;18.30;99.90;;;;;;5044679;28;20032;-56
2023/06/20 00:23:20;;;;;;;7.90;4.85;;;18.30;99.90;;;;;;5044052;28;20045;-61
2023/06/20 00:25:46;;;;;;;5.85;4.30;;;18.30;99.90;;;;;;5034903;28;20076;-61
2023/06/20 00:28:16;;;;;;;;;;;18.30;99.90;;;;;;5048529;28;20103;-56
2023/06/20 00:30:41;;;;;;;7.00;4.22;;;18.30;99.90;;;;;;5044378;28;19922;-56
2023/06/20 00:33:07;;;;;;;;;;;18.30;99.90;;;;;;5052840;28;20647;-56
2023/06/20 00:35:32;;;;;;;10.05;4.68;;;18.30;99.90;;;;;;5053556;28;19920;-60
2023/06/20 00:37:58;;;;;;;;;;;18.30;99.90;;;;;;5054568;28;20098;-58
2023/06/20 00:40:23;;;;;;;7.07;4.07;;;18.30;99.90;;;;;;5043257;28;19920;-56
2023/06/20 00:42:49;;;;;;;5.32;4.47;;;18.20;99.90;;;;;;5046361;28;20112;-58
2023/06/20 00:45:34;;;;;;;6.43;4.35;;;18.20;99.90;;;;;;5040634;28;20048;-60
2023/06/20 00:48:01;;;;;;;7.35;3.75;;;18.20;99.90;;;;;;5050303;28;20060;-60
2023/06/20 00:50:28;;;;;;;7.88;4.50;;;18.10;99.90;;;;;;5053273;28;20047;-59
2023/06/20 00:53:04;;;;;;;7.13;4.43;;;18.10;99.90;;;;;;5055235;28;20090;-57
2023/06/20 00:55:34;;;;;;;6.00;4.55;;;18.10;99.90;;;;;;5042340;28;20041;-57
2023/06/20 00:58:01;;;;;;;5.32;4.32;;;18.10;99.90;;;;;;5041125;28;20127;-59
2023/06/20 01:00:30;;;;;;;14.85;5.15;;;18.00;99.90;;;;;;5048848;28;20448;-59
2023/06/20 01:03:03;;;;;;;6.63;4.03;;;18.00;99.90;;;;;;5040838;28;20041;-60
2023/06/20 01:05:30;;;;;;;4.90;4.13;;;18.00;99.90;;;;;;5050750;28;20055;-58
2023/06/20 01:08:08;;;;;;;8.30;4.55;;;18.00;99.90;;;;;;5049926;28;20079;-59
2023/06/20 01:10:53;;;;;;;5.45;4.25;;;18.00;99.90;;;;;;5052936;28;20856;-60
2023/06/20 01:13:35;;;;;;;8.77;4.63;;;18.00;99.90;;;;;;5049636;28;20072;-58
2023/06/20 01:16:23;;;;;;;6.32;4.50;;;18.00;99.90;;;;;;5056859;28;20083;-55
2023/06/20 01:19:08;;;;;;;4.60;4.07;;;18.10;99.90;;;;;;5041290;28;20041;-59
2023/06/20 01:21:43;;;;;;;4.82;3.88;;;18.00;99.90;;;;;;5059332;28;20405;-57
2023/06/20 01:24:13;;;;;;;5.30;4.40;;;18.00;99.90;;;;;;5040312;28;20071;-58
2023/06/20 01:26:49;;;;;;;5.82;4.70;;;18.00;99.90;;;;;;5042793;28;20033;-55
2023/06/20 01:29:22;;;;;;;10.00;4.22;;;18.00;99.90;;;;;;5051984;28;20037;-59
2023/06/20 01:31:54;;;;;;;8.27;4.78;;;18.00;99.90;;;;;;5050110;28;20033;-60
2023/06/20 01:34:23;;;;;;;5.07;4.13;;;18.00;99.90;;;;;;5049863;28;20075;-61
2023/06/20 01:36:56;;;;;;;4.55;3.80;;;18.00;99.90;;;;;;5062075;28;20104;-59
2023/06/20 01:39:25;;;;;;;6.97;4.75;;;18.10;99.90;;;;;;5049203;28;20505;-61
2023/06/20 01:41:53;;;;;;;6.22;4.97;;;18.10;99.90;;;;;;5061815;28;20141;-59
2023/06/20 01:44:20;;;;;;;5.78;4.20;;;18.10;99.90;;;;;;5047775;28;20485;-62
2023/06/20 01:46:48;;;;;;;4.97;4.38;;;18.10;99.90;;;;;;5049342;28;20103;-58
2023/06/20 01:49:16;;;;;;;5.20;3.85;;;18.10;99.90;;;;;;5046399;28;20373;-61
2023/06/20 01:51:42;;;;;;;10.13;4.07;;;18.10;99.90;;;;;;5053138;28;20040;-59
2023/06/20 01:54:09;;;;;;;6.03;4.32;;;18.10;99.90;;;;;;5046524;28;20040;-61
2023/06/20 01:56:37;;;;;;;9.15;4.25;;;18.10;99.90;;;;;;5048448;28;20040;-59
2023/06/20 01:59:04;;;;;;;6.28;4.57;;;18.10;99.90;;;;;;5047448;28;20048;-60
2023/06/20 02:01:32;;;;;;;5.78;4.57;;;18.10;99.90;;;;;;5049205;28;20090;-60
2023/06/20 02:03:59;;;;;;;4.57;3.75;;;18.10;99.90;;;;;;5039586;28;20409;-60
2023/06/20 02:06:26;;;;;;;7.63;4.00;;;18.10;99.90;;;;;;5053925;28;20512;-53
2023/06/20 02:08:54;;;;;;;5.90;4.03;;;18.10;99.90;;;;;;5043790;28;20067;-57
2023/06/20 02:11:21;;;;;;;5.88;4.30;;;18.10;99.90;;;;;;5057606;28;20028;-55
2023/06/20 02:13:49;;;;;;;7.53;4.78;;;18.10;99.90;;;;;;5053468;28;20500;-56
2023/06/20 02:16:16;;;;;;;5.97;4.82;;;18.00;99.90;;;;;;5050929;28;20041;-60
2023/06/20 02:18:41;;;;;;;7.28;4.32;;;18.00;99.90;;;;;;5049480;28;20543;-52
2023/06/20 02:21:10;;;;;;;;;;;18.10;99.90;;;;;;5048166;28;20029;-56
2023/06/20 02:23:38;;;;;;;5.40;4.40;;;18.10;99.90;;;;;;5046317;28;19923;-57
2023/06/20 02:26:13;;;;;;;9.45;4.80;;;18.10;99.90;;;;;;5043159;28;20049;-59
2023/06/20 02:28:42;;;;;;;6.50;4.93;;;18.10;99.90;;;;;;5045543;28;20029;-57
2023/06/20 02:31:11;;;;;;;5.97;4.68;;;18.10;99.90;;;;;;5052874;28;20612;-60
2023/06/20 02:33:39;;;;;;;6.53;4.65;;;18.00;99.90;;;;;;5042420;28;20052;-55
2023/06/20 02:36:07;;;;;;;5.63;4.90;;;18.10;99.90;;;;;;5053764;28;20047;-57
2023/06/20 02:38:33;;;;;;;5.68;4.80;;;18.10;99.90;;;;;;5048635;28;20408;-55
2023/06/20 02:40:58;;;;;;;;;;;18.00;99.90;;;;;;5056534;28;20495;-61
2023/06/20 02:43:24;;;;;;;8.23;4.88;;;18.10;99.90;;;;;;5048751;28;19924;-60
2023/06/20 02:45:59;;;;;;;11.60;4.85;;;18.00;99.90;;;;;;5053237;28;20131;-60
2023/06/20 02:48:42;;;;;;;5.22;4.70;;;18.00;99.90;;;;;;5052511;28;20040;-61
2023/06/20 02:51:16;;;;;;;5.10;4.55;;;18.00;99.90;;;;;;5063590;28;20085;-60
2023/06/20 02:54:14;;;;;;;7.72;5.45;;;18.00;99.90;;;;;;5052605;28;20384;-59
2023/06/20 02:56:43;;;;;;;5.38;4.88;;;18.00;99.90;;;;;;5046714;28;20083;-59
2023/06/20 02:59:10;;;;;;;6.20;5.38;;;17.90;99.90;;;;;;5043128;28;20127;-60
2023/06/20 03:01:39;;;;;;;6.50;4.90;;;17.90;99.90;;;;;;5052290;28;20036;-61
2023/06/20 03:04:06;;;;;;;8.57;5.43;;;17.90;99.90;;;;;;5043254;28;20086;-59
2023/06/20 03:06:34;;;;;;;6.80;5.43;;;17.90;99.90;;;;;;5052932;28;20045;-59
2023/06/20 03:09:03;;;;;;;7.68;5.05;;;17.90;99.90;;;;;;5041383;28;20029;-60
2023/06/20 03:11:29;;;;;;;5.68;4.78;;;18.00;99.90;;;;;;5060930;28;20074;-58
2023/06/20 03:13:54;;;;;;;8.32;4.90;;;17.90;99.90;;;;;;5045125;28;20049;-62
2023/06/20 03:16:20;;;;;;;;;;;17.90;99.90;;;;;;5062495;28;20052;-59
2023/06/20 03:18:48;;;;;;;6.38;4.72;;;18.00;99.90;;;;;;5041207;28;20285;-60
2023/06/20 03:21:14;;;;;;;6.95;5.55;;;18.00;99.90;;;;;;5066169;28;20033;-57
2023/06/20 03:23:40;;;;;;;;;;;18.00;99.90;;;;;;5038138;28;20049;-60
2023/06/20 03:26:06;;;;;;;7.60;5.07;;;18.00;99.90;;;;;;5039324;28;19931;-60
2023/06/20 03:28:31;;;;;;;6.47;5.25;;;17.90;99.90;;;;;;5046774;28;20619;-59
2023/06/20 03:30:57;;;;;;;;;;;17.90;99.90;;;;;;5049311;28;20890;-53
2023/06/20 03:33:23;;;;;;;6.20;5.60;;;18.00;99.90;;;;;;5051655;28;19920;-59
2023/06/20 03:35:48;;;;;;;;;;;17.90;99.90;;;;;;5054735;28;20043;-59
2023/06/20 03:38:14;;;;;;;6.60;5.10;;;18.00;99.90;;;;;;5049750;28;19920;-60
2023/06/20 03:40:39;;;;;;;6.25;5.40;;;17.90;99.90;;;;;;5054548;28;20755;-59
2023/06/20 03:43:05;;;;;;;6.57;5.50;;;17.90;99.90;;;;;;5053223;28;20514;-58
2023/06/20 03:45:31;;;;;;;;;;;17.90;99.90;;;;;;5052410;28;20097;-56
2023/06/20 03:47:56;;;;;;;8.63;5.88;;;18.00;99.90;;;;;;5053402;28;20026;-55
2023/06/20 03:50:22;;;;;;;;;;;18.00;99.90;;;;;;5049010;28;20167;-62
2023/06/20 03:52:47;;;;;;;6.20;5.35;;;18.00;99.90;;;;;;5048074;28;19916;-60
2023/06/20 03:55:13;;;;;;;7.93;5.57;;;18.00;99.90;;;;;;5043148;28;20515;-62
2023/06/20 03:57:38;;;;;;;6.65;5.40;;;18.00;99.90;;;;;;5060809;28;20037;-59
2023/06/20 04:00:10;;;;;;;;;;;18.00;99.90;;;;;;5042248;28;20032;-56
2023/06/20 04:02:36;;;;;;;7.47;6.20;;;18.00;99.90;;;;;;5048217;28;19924;-54
2023/06/20 04:05:01;;;;;;;;;;;18.00;99.90;;;;;;5051554;28;20576;-58
2023/06/20 04:07:31;;;;;;;8.10;5.25;;;18.00;99.90;;;;;;5058776;28;19999;-58
2023/06/20 04:09:57;;;;;;;7.75;6.03;;;17.90;99.90;;;;;;5051824;28;20093;-59
2023/06/20 04:12:22;;;;;;;;;;;18.00;99.90;;;;;;5055849;28;20119;-58
2023/06/20 04:14:48;;;;;;;9.07;5.95;;;17.90;99.90;;;;;;5055404;28;19920;-58
2023/06/20 04:17:14;;;;;;;8.30;5.75;;;18.00;99.90;;;;;;5054709;28;20094;-61
2023/06/20 04:19:39;;;;;;;;;;;18.00;99.90;;;;;;5050113;28;20041;-57
2023/06/20 04:22:05;;;;;;;7.72;5.55;;;18.00;99.90;;;;;;5054337;28;20007;-58
2023/06/20 04:24:30;;;;;;;8.38;5.57;;;18.00;99.90;;;;;;5047303;28;20101;-57
2023/06/20 04:26:56;;;;;;;9.38;6.70;;;18.00;99.90;;;;;;5057291;28;20032;-60
2023/06/20 04:29:21;;;;;;;;;;;18.00;99.90;;;;;;5054766;28;20032;-61
2023/06/20 04:31:49;;;;;;;7.57;5.85;;;18.00;99.90;;;;;;5054711;28;19920;-63
2023/06/20 04:34:14;;;;;;;9.32;5.80;;;18.00;99.90;;;;;;5054592;28;20408;-59
2023/06/20 04:36:40;;;;;;;;;;;18.00;99.90;;;;;;5050037;28;20033;-59
2023/06/20 04:39:06;;;;;;;8.43;6.65;;;18.10;99.90;;;;;;5051993;28;19916;-61
2023/06/20 04:41:32;;;;;;;8.82;6.35;;;18.00;99.90;;;;;;5051875;28;20052;-60
2023/06/20 04:44:00;;;;;;;;;;;18.10;99.90;;;;;;5056470;28;20036;-61
2023/06/20 04:46:26;;;;;;;7.10;6.40;;;18.10;99.90;;;;;;5046617;28;19921;-59
2023/06/20 04:48:51;;;;;;;;;;;18.10;99.90;;;;;;5051920;28;20056;-59
2023/06/20 04:51:17;;;;;;;7.15;5.63;;;18.10;99.90;;;;;;5046943;28;19920;-61
2023/06/20 04:53:42;;;;;;;7.95;6.43;;;18.10;99.90;;;;;;5042254;28;20036;-59
2023/06/20 04:56:08;;;;;;;7.82;6.72;;;18.10;99.90;;;;;;5052286;28;20571;-61
2023/06/20 04:58:33;;;;;;;12.85;6.57;;;18.20;99.90;;;;;;5053185;28;20072;-60
2023/06/20 05:01:00;;;;;;;8.20;6.18;;;18.10;99.90;;;;;;5053723;28;20495;-62
2023/06/20 05:03:26;;;;;;;8.13;6.85;;;18.10;99.90;;;;;;5049873;28;20045;-61
2023/06/20 05:05:52;;;;;;;10.82;7.65;;;18.10;99.90;;;;;;5051534;28;20052;-61
2023/06/20 05:08:18;;;;;;;8.18;6.80;;;18.10;99.90;;;;;;5045742;28;20055;-54
2023/06/20 05:10:44;;;;;;;;;;;18.20;99.90;;;;;;5054473;28;20691;-61
2023/06/20 05:13:10;;;;;;;8.35;6.53;;;18.20;99.90;;;;;;5053900;28;19935;-57
2023/06/20 05:15:35;;;;;;;8.07;6.97;;;18.20;99.90;;;;;;5051638;28;20655;-61
2023/06/20 05:18:01;;;;;;;7.38;6.30;;;18.30;99.90;;;;;;5044795;28;20041;-60
2023/06/20 05:20:26;;;;;;;9.55;5.85;;;18.20;99.90;;;;;;5051011;28;20085;-57
2023/06/20 05:22:52;;;;;;;8.20;5.78;;;18.30;99.90;;;;;;5045312;28;20025;-60
2023/06/20 05:25:18;;;;;;;6.57;5.80;;;18.30;99.90;;;;;;5052489;28;20036;-62
2023/06/20 05:27:44;;;;;;;6.88;5.65;;;18.30;99.90;;;;;;5042261;28;20036;-60
2023/06/20 05:30:10;;;;;;;8.40;6.80;;;18.30;99.90;;;;;;5057438;28;20036;-60
2023/06/20 05:32:35;;;;;;;7.57;6.28;;;18.40;99.90;;;;;;5048099;28;20056;-61
2023/06/20 05:35:01;;;;;;;7.40;6.60;;;18.40;99.90;;;;;;5043732;28;20559;-59
2023/06/20 05:37:30;;;;;;;7.57;6.07;;;18.40;99.90;;;;;;5044410;28;20033;-57
2023/06/20 05:39:57;;;;;;;7.10;5.10;;;18.40;99.90;;;;;;5053552;28;20057;-59
2023/06/20 05:42:22;;;;;;;6.18;5.13;;;18.40;99.90;;;;;;5049549;28;20111;-60
2023/06/20 05:44:48;;;;;;;;;;;18.50;99.90;;;;;;5053903;28;20127;-56
2023/06/20 05:47:17;;;;;;;8.93;5.60;;;18.50;99.90;;;;;;5049287;28;20552;-59
2023/06/20 05:49:46;;;;;;;10.00;6.03;;;18.50;99.90;;;;;;5039577;28;20520;-62
2023/06/20 05:52:12;;;;;;;8.77;5.65;;;18.50;99.90;;;;;;5053755;28;20033;-61
2023/06/20 05:54:37;;;;;;;;;;;18.40;99.90;;;;;;5043942;28;20041;-60
2023/06/20 05:57:05;;;;;;;7.60;6.05;;;18.50;99.90;;;;;;5054283;28;19920;-59
2023/06/20 05:59:31;;;;;;;9.15;5.82;;;18.50;99.90;;;;;;5049993;28;20044;-62
2023/06/20 06:01:57;;;;;;;;;;;18.50;99.90;;;;;;5039834;28;20110;-61
2023/06/20 06:04:22;;;;;;;8.77;6.38;;;18.50;99.90;;;;;;5048387;28;19920;-59
2023/06/20 06:06:48;;;;;;;12.68;6.35;;;18.50;99.90;;;;;;5050127;28;20044;-59
2023/06/20 06:09:15;;;;;;;9.77;5.45;;;18.50;99.90;;;;;;5050777;28;20064;-59
2023/06/20 06:11:41;;;;;;;15.10;5.82;;;18.50;99.90;;;;;;5051961;28;20107;-56
2023/06/20 06:14:06;;;;;;;;;;;18.50;99.90;;;;;;5042935;28;20041;-60
2023/06/20 06:16:32;;;;;;;6.65;5.80;;;18.50;99.90;;;;;;5044613;28;20296;-59
2023/06/20 06:18:59;;;;;;;8.25;5.97;;;18.50;99.90;;;;;;5049058;28;20037;-60
2023/06/20 06:21:25;;;;;;;7.95;6.07;;;18.50;99.90;;;;;;5044644;28;20513;-60
2023/06/20 06:23:50;;;;;;;;;;;18.50;99.90;;;;;;5046640;28;20051;-60
2023/06/20 06:26:16;;;;;;;10.55;6.53;;;18.60;99.90;;;;;;5045701;28;19985;-61
2023/06/20 06:28:41;;;;;;;;;;;18.60;99.90;;;;;;5053688;28;20119;-56
2023/06/20 06:31:13;;;;;;;8.52;6.45;;;18.60;99.90;;;;;;5050941;28;19944;-59
2023/06/20 06:33:40;;;;;;;8.98;6.47;;;18.70;99.90;;;;;;5047347;28;20049;-60
2023/06/20 06:36:08;;;;;;;9.18;6.80;;;18.70;99.90;;;;;;5050221;28;20041;-57
2023/06/20 06:38:34;;;;;;;9.25;6.90;;;18.80;99.90;;;;;;5044110;28;20040;-55
2023/06/20 06:40:59;;;;;;;;;;;18.80;99.90;;;;;;5049044;28;20056;-53
2023/06/20 06:43:25;;;;;;;9.68;6.70;;;18.90;99.90;;;;;;5044588;28;19943;-61
2023/06/20 06:45:52;;;;;;;8.50;6.60;;;18.90;99.90;;;;;;5043963;28;20058;-61
2023/06/20 06:48:17;;;;;;;8.73;6.75;;;18.90;99.90;;;;;;5047290;28;20044;-61
2023/06/20 06:50:43;;;;;;;7.82;6.70;;;18.90;99.90;;;;;;5047567;28;20040;-59
2023/06/20 06:53:10;;;;;;;9.93;7.45;;;18.90;99.90;;;;;;5039261;28;20037;-59
2023/06/20 06:55:36;;;;;;;11.52;7.32;;;19.00;99.90;;;;;;5046625;28;20400;-60
2023/06/20 06:58:01;;;;;;;7.65;6.75;;;19.00;99.90;;;;;;5049343;28;20037;-59
2023/06/20 07:00:27;;;;;;;8.50;6.75;;;19.00;99.90;;;;;;5047753;28;20117;-61
2023/06/20 07:02:52;;;;;;;11.98;7.65;;;19.10;99.90;;;;;;5045127;28;20043;-59
2023/06/20 07:05:19;;;;;;;9.32;7.13;;;19.10;99.90;;;;;;5044770;28;20045;-62
2023/06/20 07:07:45;;;;;;;10.30;8.13;;;19.00;99.90;;;;;;5043747;28;20052;-61
2023/06/20 07:10:10;;;;;;;;;;;19.10;99.90;;;;;;5058085;28;20515;-59
2023/06/20 07:12:36;;;;;;;11.98;7.78;;;19.10;99.90;;;;;;5049835;28;19920;-60
2023/06/20 07:15:02;;;;;;;10.48;7.43;;;19.10;99.90;;;;;;5048547;28;20139;-61
2023/06/20 07:17:28;;;;;;;11.00;7.50;;;19.20;99.90;;;;;;5048677;28;20139;-62
2023/06/20 07:19:54;;;;;;;11.90;7.45;;;19.20;99.90;;;;;;5045384;28;20048;-61
2023/06/20 07:22:20;;;;;;;10.93;7.70;;;19.20;99.90;;;;;;5043819;28;20024;-63
2023/06/20 07:24:46;;;;;;;8.85;7.57;;;19.20;99.90;;;;;;5046898;28;20089;-63
2023/06/20 07:27:11;;;;;;;11.90;7.40;;;19.30;99.90;;;;;;5046236;28;20041;-61
2023/06/20 07:29:37;;;;;;;;;;;19.20;99.90;;;;;;5054783;28;20070;-61
2023/06/20 07:32:03;;;;;;;11.45;7.65;;;19.30;99.90;;;;;;5046480;28;19924;-59
2023/06/20 07:34:29;;;;;;;10.45;7.55;;;19.30;99.90;;;;;;5047983;28;20154;-63
2023/06/20 07:36:54;;;;;;;9.93;8.07;;;19.30;99.90;;;;;;5053356;28;20502;-61
2023/06/20 07:39:20;;;;;;;10.23;8.07;;;19.30;99.90;;;;;;5048124;28;20132;-63
2023/06/20 07:41:46;;;;;;;14.68;8.25;;;19.30;99.90;;;;;;5048713;28;20032;-64
2023/06/20 07:44:11;;;;;;;11.80;7.63;;;19.40;99.90;;;;;;5054641;28;20036;-65
2023/06/20 07:46:40;;;;;;;9.40;7.40;;;19.40;99.90;;;;;;5046479;28;20069;-62
2023/06/20 07:49:06;;;;;;;9.95;7.22;;;19.40;99.90;;;;;;5054883;28;20033;-64
2023/06/20 07:51:33;;;;;;;11.18;7.78;;;19.50;99.90;;;;;;5055431;28;20126;-62
2023/06/20 07:54:05;;;;;;;8.55;7.05;;;19.80;99.90;;;;;;5051581;28;20126;-63
2023/06/20 07:56:31;;;;;;;10.15;7.35;;;20.00;99.90;;;;;;5052046;28;20051;-63
2023/06/20 07:58:56;;;;;;;9.88;7.18;;;19.90;99.90;;;;;;5046206;28;20037;-62
2023/06/20 08:01:22;;;;;;;13.38;7.95;;;19.90;99.90;;;;;;5045972;28;20049;-63
2023/06/20 08:03:48;;;;;;;12.93;7.70;;;19.90;99.90;;;;;;5049605;28;20406;-63
2023/06/20 08:06:14;;;;;;;10.65;7.85;;;19.80;99.90;;;;;;5047548;28;20295;-62
2023/06/20 08:08:41;;;;;;;9.90;8.00;;;19.80;99.90;;;;;;5048897;28;20747;-63
2023/06/20 08:11:07;;;;;;;12.15;7.97;;;19.80;99.90;;;;;;5048612;28;20031;-61
2023/06/20 08:13:32;;;;;;;8.95;7.53;;;19.80;99.90;;;;;;5050366;28;20880;-62
2023/06/20 08:15:59;;;;;;;11.10;8.55;;;19.90;99.90;;;;;;5048059;28;20049;-62
2023/06/20 08:18:24;;;;;;;14.63;8.30;;;19.80;99.90;;;;;;5052732;28;20041;-62
2023/06/20 08:20:50;;;;;;;11.30;8.63;;;19.80;99.90;;;;;;5048595;28;20044;-62
2023/06/20 08:23:25;;;;;;;10.63;8.55;;;19.80;99.90;;;;;;5048270;28;20047;-63
2023/06/20 08:25:55;;;;;;;10.07;8.30;;;19.80;99.90;;;;;;5056188;28;20885;-64
2023/06/20 08:28:24;;;;;;;10.75;8.02;;;19.90;99.90;;;;;;5051181;28;20064;-61
2023/06/20 08:30:50;;;;;;;11.52;8.77;;;19.90;99.90;;;;;;5056917;28;20507;-60
2023/06/20 08:33:17;;;;;;;10.27;8.15;;;20.00;99.90;;;;;;5057113;28;20139;-62
2023/06/20 08:35:43;;;;;;;9.85;7.85;;;20.00;99.90;;;;;;5054758;28;20041;-63
2023/06/20 08:38:09;;;;;;;9.38;8.05;;;20.00;99.90;;;;;;5045451;28;20056;-63
2023/06/20 08:40:35;;;;;;;10.55;7.82;;;19.90;99.90;;;;;;5052943;28;20045;-62
2023/06/20 08:43:02;;;;;;;9.88;7.95;;;20.00;99.90;;;;;;5038223;28;20059;-57
2023/06/20 08:45:27;;;;;;;12.35;8.68;;;20.10;99.90;;;;;;5048585;28;20040;-62
2023/06/20 08:47:58;;;;;;;9.30;7.65;;;20.20;99.90;;;;;;5047111;28;20063;-63
2023/06/20 08:50:25;;;;;;;8.63;7.25;;;20.30;99.90;;;;;;5057043;28;20132;-61
2023/06/20 08:52:55;;;;;;;12.23;7.68;;;20.60;99.90;;;;;;5041481;28;20045;-61
2023/06/20 08:55:22;;;;;;;8.27;6.70;;;20.80;99.90;;;;;;5049255;28;20043;-63
2023/06/20 08:57:47;;;;;;;11.68;6.45;;;21.00;99.90;;;;;;5043005;28;20547;-60
2023/06/20 09:00:17;;;;;;;9.45;6.68;;;21.20;99.90;;;;;;5046795;28;20047;-60
2023/06/20 09:02:43;;;;;;;8.20;6.63;;;21.20;99.90;;;;;;5049531;28;20052;-63
2023/06/20 09:05:09;;;;;;;9.25;7.43;;;21.40;99.90;;;;;;5041767;28;20037;-63
2023/06/20 09:07:36;;;;;;;7.40;6.60;;;21.40;99.90;;;;;;5051174;28;20049;-61
2023/06/20 09:10:02;;;;;;;7.28;6.22;;;21.50;99.90;;;;;;5048388;28;20163;-62
2023/06/20 09:12:28;;;;;;;7.97;6.82;;;21.60;99.90;;;;;;5042789;28;20037;-60
2023/06/20 09:14:53;;;;;;;6.88;5.90;;;21.60;99.90;;;;;;5042066;28;20839;-60
2023/06/20 09:17:19;;;;;;;7.57;5.40;;;21.60;99.90;;;;;;5048015;28;20051;-60
2023/06/20 09:19:46;;;;;;;7.43;6.38;;;21.70;99.90;;;;;;5049678;28;20029;-62
2023/06/20 09:22:16;;;;;;;8.73;7.78;;;21.70;99.90;;;;;;5047562;28;20039;-62
2023/06/20 09:24:44;;;;;;;12.85;8.05;;;22.00;99.90;;;;;;5047104;28;20037;-61
2023/06/20 09:27:10;;;;;;;11.25;7.60;;;22.10;99.90;;;;;;5048742;28;20052;-61
2023/06/20 09:30:00;;;;;;;8.57;6.93;;;22.30;99.90;;;;;;5050360;28;20516;-60
2023/06/20 09:32:26;;;;;;;7.63;6.00;;;22.50;99.90;;;;;;5054637;28;20097;-56
2023/06/20 09:34:51;;;;;;;8.07;6.07;;;22.60;99.90;;;;;;5052021;28;20037;-62
2023/06/20 09:37:18;;;;;;;8.18;6.32;;;22.70;99.90;;;;;;5051346;28;20420;-61
2023/06/20 09:39:44;;;;;;;8.00;6.47;;;22.80;99.90;;;;;;5048468;28;20070;-62
2023/06/20 09:42:13;;;;;;;9.48;5.93;;;22.90;99.90;;;;;;5050012;28;20032;-61
2023/06/20 09:44:40;;;;;;;8.02;6.20;;;22.90;99.90;;;;;;5042889;28;20043;-62
2023/06/20 09:47:06;;;;;;;7.07;6.35;;;23.10;99.90;;;;;;5046851;28;20099;-59
2023/06/20 09:49:34;;;;;;;8.10;5.78;;;23.10;99.90;;;;;;5045759;28;20037;-58
2023/06/20 09:52:07;;;;;;;8.05;6.05;;;23.10;99.90;;;;;;5049336;28;20033;-57
2023/06/20 09:54:50;;;;;;;7.70;6.38;;;23.20;99.90;;;;;;5050848;28;20144;-59
2023/06/20 09:57:20;;;;;;;8.38;6.78;;;23.50;99.90;;;;;;5071160;28;20050;-61
2023/06/20 09:59:49;;;;;;;7.88;6.38;;;23.70;99.90;;;;;;5045807;28;20647;-62
2023/06/20 10:02:17;;;;;;;7.55;6.40;;;23.90;99.90;;;;;;5054618;28;20036;-60
2023/06/20 10:04:44;;;;;;;8.63;6.20;;;23.90;99.90;;;;;;5046610;28;20147;-63
2023/06/20 10:07:14;;;;;;;6.85;6.15;;;23.80;99.90;;;;;;5045629;28;20040;-63
2023/06/20 10:09:41;;;;;;;9.40;6.70;;;23.90;99.90;;;;;;5055806;28;20570;-61
2023/06/20 10:12:08;;;;;;;9.45;6.53;;;24.10;99.90;;;;;;5056086;28;20041;-59
2023/06/20 10:14:35;;;;;;;6.78;6.00;;;24.10;99.90;;;;;;5043747;28;20115;-60
2023/06/20 10:17:08;;;;;;;8.43;6.32;;;24.20;99.90;;;;;;5049279;28;20044;-60
2023/06/20 10:19:48;;;;;;;7.38;6.30;;;24.30;99.90;;;;;;5047031;28;20043;-61
2023/06/20 10:22:14;;;;;;;10.95;6.93;;;24.20;99.90;;;;;;5050084;28;20424;-61
2023/06/20 10:24:41;;;;;;;7.30;6.43;;;24.00;99.90;;;;;;5049817;28;20041;-61
2023/06/20 10:27:07;;;;;;;6.85;6.15;;;23.90;99.90;;;;;;5051834;28;20075;-58
2023/06/20 10:29:41;;;;;;;8.43;6.93;;;23.80;99.90;;;;;;5049991;28;20045;-61
2023/06/20 10:32:09;;;;;;;9.73;6.40;;;23.80;99.90;;;;;;5045150;28;20648;-61
2023/06/20 10:34:37;;;;;;;7.45;6.00;;;23.70;99.90;;;;;;5046022;28;20068;-60
2023/06/20 10:37:20;;;;;;;12.82;6.70;;;23.50;99.90;;;;;;5052279;28;20036;-61
2023/06/20 10:39:56;;;;;;;7.13;5.88;;;23.60;99.90;;;;;;5048972;28;20037;-58
2023/06/20 10:42:40;;;;;;;8.60;6.00;;;23.80;99.90;;;;;;5052340;28;20109;-60
2023/06/20 10:45:27;;;;;;;6.35;5.15;;;23.90;99.90;;;;;;5049655;28;20123;-61
2023/06/20 10:47:53;;;;;;;6.45;5.28;;;24.10;99.90;;;;;;5039619;28;20048;-61
2023/06/20 10:50:20;;;;;;;6.15;5.47;;;24.30;99.90;;;;;;5048343;28;20037;-61
2023/06/20 10:52:47;;;;;;;7.05;5.75;;;24.50;99.90;;;;;;5049356;28;20064;-62
2023/06/20 10:55:14;;;;;;;6.30;5.70;;;24.50;99.90;;;;;;5047745;28;20040;-59
2023/06/20 10:57:47;;;;;;;6.30;5.15;;;24.50;99.90;;;;;;5053477;28;20512;-62
2023/06/20 11:00:18;;;;;;;4.88;4.38;;;24.60;99.90;;;;;;5062947;28;20032;-61
2023/06/20 11:02:46;;;;;;;5.30;4.50;;;24.70;99.90;;;;;;5079241;28;20043;-61
2023/06/20 11:05:11;;;;;;;6.93;4.13;;;24.90;99.90;;;;;;5066090;28;20137;-60
2023/06/20 11:07:56;;;;;;;5.60;4.15;;;24.90;99.90;;;;;;5078930;28;20071;-59
2023/06/20 11:10:29;;;;;;;6.13;4.20;;;25.00;99.90;;;;;;5076756;28;20093;-61
2023/06/20 11:12:56;;;;;;;5.72;3.95;;;25.00;99.90;;;;;;5080793;28;20424;-59
2023/06/20 11:15:29;;;;;;;4.95;4.07;;;24.80;99.90;;;;;;5071567;28;20048;-60
2023/06/20 11:17:56;;;;;;;4.55;4.15;;;24.90;99.90;;;;;;5078658;28;20465;-61
2023/06/20 11:20:24;;;;;;;5.03;4.07;;;24.90;99.90;;;;;;5073660;28;20185;-60
2023/06/20 11:22:52;;;;;;;4.60;3.67;;;24.90;98.90;;;;;;5079171;28;20047;-61
2023/06/20 11:25:29;;;;;;;4.57;3.38;;;24.80;99.90;;;;;;5072540;28;20129;-59
2023/06/20 11:28:03;;;;;;;5.97;4.15;;;24.80;99.10;;;;;;5073271;28;20039;-60
2023/06/20 11:30:30;;;;;;;4.32;3.92;;;24.90;99.30;;;;;;5081436;28;20036;-59
2023/06/20 11:33:06;;;;;;;3.97;3.58;;;25.00;98.80;;;;;;5075342;28;20043;-61
2023/06/20 11:35:38;;;;;;;4.30;3.90;;;25.10;99.60;;;;;;5070491;28;20061;-61
2023/06/20 11:38:04;;;;;;;3.88;3.40;;;25.10;98.40;;;;;;5073644;28;20130;-61
2023/06/20 11:40:30;;;;;;;4.35;3.28;;;25.30;99.20;;;;;;5080880;28;21020;-62
2023/06/20 11:42:55;;;;;;;4.80;3.20;;;25.60;98.60;;;;;;5076405;28;20035;-60
2023/06/20 11:45:26;;;;;;;4.15;3.03;;;25.70;96.70;;;;;;5078063;28;20071;-60
2023/06/20 11:48:10;;;;;;;4.15;3.60;;;25.50;97.90;;;;;;5077311;28;20055;-60
2023/06/20 11:50:36;;;;;;;4.45;3.70;;;25.60;98.20;;;;;;5080857;28;20067;-58
2023/06/20 11:53:03;;;;;;;4.68;3.80;;;25.40;97.60;;;;;;5075367;28;20576;-62
2023/06/20 11:56:08;;;;;;;4.30;3.08;;;25.40;97.80;;;;;;5064261;28;20040;-62
2023/06/20 11:58:41;;;;;;;6.05;3.08;;;25.50;98.10;;;;;;4999692;28;20117;-59
2023/06/20 12:01:15;;;;;;;7.20;3.78;;;25.60;97.90;;;;;;5067400;28;20040;-60
2023/06/20 12:03:42;;;;;;;5.57;4.28;;;25.40;98.00;;;;;;5078418;28;20076;-60
2023/06/20 12:06:28;;;;;;;7.50;4.32;;;25.40;98.90;;;;;;5080833;28;20055;-61
2023/06/20 12:08:57;;;;;;;5.40;4.25;;;25.60;98.30;;;;;;5078384;28;20036;-60
2023/06/20 12:11:23;;;;;;;7.20;4.10;;;25.70;98.40;;;;;;5076522;28;20051;-60
2023/06/20 12:13:48;;;;;;;4.85;4.18;;;25.60;98.60;;;;;;5076531;28;20403;-59
2023/06/20 12:16:14;;;;;;;5.13;4.10;;;25.40;98.70;;;;;;5075531;28;20071;-60
2023/06/20 12:18:40;;;;;;;4.93;4.38;;;25.20;99.00;;;;;;5081114;28;20395;-57
2023/06/20 12:21:05;;;;;;;5.47;4.53;;;25.40;99.30;;;;;;5079059;28;20930;-61
2023/06/20 12:23:31;;;;;;;5.40;4.03;;;25.30;99.30;;;;;;5076513;28;20110;-57
2023/06/20 12:26:00;;;;;;;4.85;4.05;;;25.20;99.10;;;;;;5076407;28;20093;-57
2023/06/20 12:28:26;;;;;;;5.13;4.13;;;25.30;99.20;;;;;;5078472;28;20036;-56
2023/06/20 12:30:51;;;;;;;4.78;4.28;;;25.70;99.00;;;;;;5073615;28;20089;-60
2023/06/20 12:33:18;;;;;;;7.35;4.88;;;25.50;98.70;;;;;;5081397;28;20047;-60
2023/06/20 12:35:44;;;;;;;6.28;5.40;;;25.50;99.00;;;;;;5073664;28;20042;-61
2023/06/20 12:38:10;;;;;;;6.80;4.47;;;25.60;98.50;;;;;;5081647;28;20028;-62
2023/06/20 12:40:36;;;;;;;6.63;4.57;;;25.60;98.30;;;;;;5085694;28;20067;-60
2023/06/20 12:43:02;;;;;;;10.02;4.60;;;25.50;98.50;;;;;;5081489;28;20075;-62
2023/06/20 12:45:28;;;;;;;34.08;5.00;;;25.40;98.70;;;;;;5074243;28;20046;-62
2023/06/20 12:47:53;;;;;;;5.78;4.25;;;25.40;98.80;;;;;;5076524;28;20048;-60
2023/06/20 12:50:19;;;;;;;5.75;4.43;;;25.30;99.10;;;;;;5077625;28;20492;-64
2023/06/20 12:52:45;;;;;;;4.60;4.15;;;25.10;98.70;;;;;;5081577;28;20388;-61
2023/06/20 12:55:11;;;;;;;6.45;4.57;;;25.20;98.90;;;;;;5077096;28;20032;-63
2023/06/20 12:57:37;;;;;;;4.57;4.07;;;25.30;98.20;;;;;;5082941;28;20055;-63